| time (UTC) | temp C | wind direction | speed KPH | gust KPH | rain 1hr cm | rain 24hr cm | rain mn cm | humidity % | barometer mb |
| 20260507212710 | 11 | 195 | 4.8 | 6.4 | 0.00 | 0.00 | 0.00 | 71 | 1006.0 |
| 20260507211806 | 11 | 191 | 4.8 | 6.4 | 0.00 | 0.00 | 0.00 | 71 | 1006.2 |
| 20260507210907 | 11 | 202 | 4.8 | 6.4 | 0.00 | 0.00 | 0.00 | 71 | 1006.0 |
| 20260507210007 | 11 | 183 | 6.4 | 6.4 | 0.00 | 0.00 | 0.00 | 71 | 1006.0 |
| 20260507205404 | 11 | 179 | 4.8 | 6.4 | 0.00 | 0.00 | 0.00 | 72 | 1006.0 |
| 20260507204506 | 11 | 181 | 1.6 | 3.2 | 0.00 | 0.00 | 0.00 | 72 | 1005.8 |
| 20260507203608 | 11 | 243 | 0.0 | 3.2 | 0.00 | 0.00 | 0.00 | 71 | 1005.7 |
| 20260507202706 | 11 | 216 | 3.2 | 3.2 | 0.00 | 0.00 | 0.00 | 70 | 1005.8 |
| 20260507201807 | 12 | 194 | 3.2 | 6.4 | 0.00 | 0.00 | 0.00 | 68 | 1005.4 |
| 20260507200910 | 12 | 198 | 4.8 | 6.4 | 0.00 | 0.00 | 0.00 | 68 | 1005.5 |
| 20260507200011 | 12 | 203 | 4.8 | 6.4 | 0.00 | 0.00 | 0.00 | 68 | 1005.5 |
| 20260507195408 | 12 | 211 | 3.2 | 6.4 | 0.00 | 0.00 | 0.00 | 68 | 1005.3 |
| 20260507194507 | 12 | 211 | 3.2 | 6.4 | 0.00 | 0.00 | 0.00 | 69 | 1005.2 |
| 20260507193606 | 12 | 224 | 1.6 | 3.2 | 0.00 | 0.00 | 0.00 | 70 | 1005.4 |
| 20260507192707 | 13 | 185 | 3.2 | 3.2 | 0.00 | 0.00 | 0.00 | 69 | 1005.1 |
| 20260507192018 | 13 | 177 | 3.2 | 6.4 | 0.00 | 0.00 | 0.00 | 69 | 1005.4 |
| 20260507190907 | 13 | 157 | 3.2 | 6.4 | 0.00 | 0.00 | 0.00 | 68 | 1005.2 |
| 20260507190006 | 13 | 171 | 4.8 | 6.4 | 0.00 | 0.00 | 0.00 | 67 | 1005.2 |
| 20260507185406 | 13 | 176 | 6.4 | 6.4 | 0.00 | 0.00 | 0.00 | 66 | 1005.1 |
| 20260507184506 | 13 | 199 | 4.8 | 6.4 | 0.00 | 0.00 | 0.00 | 66 | 1005.1 |
| 20260507183607 | 13 | 199 | 3.2 | 6.4 | 0.00 | 0.00 | 0.00 | 66 | 1005.0 |
| 20260507182917 | 13 | 210 | 6.4 | 11.3 | 0.00 | 0.00 | 0.00 | 67 | 1004.9 |
| 20260507182019 | 14 | 186 | 4.8 | 6.4 | 0.00 | 0.00 | 0.00 | 67 | 1005.1 |
| 20260507180907 | 13 | 207 | 6.4 | 9.7 | 0.00 | 0.00 | 0.00 | 69 | 1004.9 |
| 20260507180006 | 13 | 230 | 8.0 | 11.3 | 0.00 | 0.00 | 0.00 | 70 | 1005.1 |
| 20260507175405 | 13 | 223 | 8.0 | 11.3 | 0.00 | 0.00 | 0.00 | 70 | 1004.9 |
| 20260507174717 | 12 | 216 | 4.8 | 9.7 | 0.00 | 0.00 | 0.00 | 70 | 1004.9 |
| 20260507173815 | 12 | 243 | 4.8 | 6.4 | 0.00 | 0.00 | 0.00 | 72 | 1004.9 |
| 20260507172917 | 12 | 261 | 8.0 | 9.7 | 0.00 | 0.00 | 0.00 | 72 | 1005.2 |
| 20260507171808 | 12 | 243 | 6.4 | 6.4 | 0.00 | 0.00 | 0.00 | 71 | 1005.1 |
| 20260507170905 | 12 | 246 | 6.4 | 9.7 | 0.00 | 0.00 | 0.00 | 71 | 1004.9 |
| 20260507170009 | 12 | 266 | 11.3 | 17.7 | 0.00 | 0.00 | 0.00 | 71 | 1004.9 |
| 20260507165407 | 12 | 271 | 11.3 | 17.7 | 0.00 | 0.00 | 0.00 | 70 | 1005.2 |
| 20260507164505 | 12 | 205 | 12.9 | 17.7 | 0.00 | 0.00 | 0.00 | 68 | 1005.2 |
| 20260507163606 | 13 | 159 | 9.7 | 17.7 | 0.00 | 0.00 | 0.00 | 62 | 1005.1 |
| 20260507162923 | 13 | 164 | 9.7 | 12.9 | 0.00 | 0.00 | 0.00 | 61 | 1004.6 |
| 20260507161809 | 14 | 160 | 9.7 | 14.5 | 0.00 | 0.00 | 0.00 | 60 | 1004.7 |
| 20260507160907 | 14 | 134 | 11.3 | 14.5 | 0.00 | 0.00 | 0.00 | 60 | 1004.8 |
| 20260507160006 | 14 | 132 | 11.3 | 14.5 | 0.00 | 0.00 | 0.00 | 60 | 1004.7 |
| 20260507155405 | 14 | 138 | 12.9 | 14.5 | 0.00 | 0.00 | 0.00 | 60 | 1004.8 |
| 20260507154507 | 14 | 149 | 11.3 | 14.5 | 0.00 | 0.00 | 0.00 | 59 | 1004.7 |
| 20260507153605 | 14 | 177 | 9.7 | 14.5 | 0.00 | 0.00 | 0.00 | 58 | 1004.7 |
| 20260507152918 | 15 | 153 | 8.0 | 14.5 | 0.00 | 0.00 | 0.00 | 59 | 1004.6 |
| 20260507151805 | 14 | 134 | 11.3 | 14.5 | 0.00 | 0.00 | 0.00 | 61 | 1004.7 |
| 20260507150906 | 14 | 132 | 8.0 | 12.9 | 0.00 | 0.00 | 0.00 | 61 | 1005.0 |
| 20260507150007 | 14 | 145 | 8.0 | 11.3 | 0.00 | 0.00 | 0.00 | 62 | 1004.9 |
| 20260507145407 | 13 | 135 | 9.7 | 12.9 | 0.00 | 0.00 | 0.00 | 62 | 1004.9 |
| 20260507144508 | 13 | 137 | 11.3 | 17.7 | 0.00 | 0.00 | 0.00 | 61 | 1005.0 |
| 20260507143822 | 13 | 146 | 11.3 | 20.9 | 0.00 | 0.00 | 0.00 | 60 | 1005.1 |
| 20260507142711 | 13 | 131 | 11.3 | 17.7 | 0.00 | 0.00 | 0.00 | 61 | 1005.2 |
| 20260507141805 | 13 | 134 | 11.3 | 17.7 | 0.00 | 0.00 | 0.00 | 60 | 1005.3 |
| 20260507140910 | 14 | 130 | 14.5 | 17.7 | 0.00 | 0.00 | 0.00 | 60 | 1005.5 |
| 20260507140008 | 14 | 122 | 14.5 | 20.9 | 0.00 | 0.00 | 0.00 | 60 | 1005.2 |
| 20260507135407 | 14 | 135 | 16.1 | 24.1 | 0.00 | 0.00 | 0.00 | 60 | 1005.4 |
| 20260507134715 | 14 | 161 | 16.1 | 24.1 | 0.00 | 0.00 | 0.00 | 60 | 1005.5 |
| 20260507133605 | 15 | 130 | 17.7 | 27.4 | 0.00 | 0.00 | 0.00 | 58 | 1005.4 |
| 20260507132920 | 15 | 141 | 17.7 | 27.4 | 0.00 | 0.00 | 0.00 | 59 | 1005.6 |
| 20260507131805 | 15 | 129 | 14.5 | 17.7 | 0.00 | 0.00 | 0.00 | 60 | 1005.6 |
| 20260507130907 | 15 | 114 | 9.7 | 17.7 | 0.00 | 0.00 | 0.00 | 57 | 1005.5 |
| 20260507130006 | 14 | 117 | 12.9 | 17.7 | 0.00 | 0.00 | 0.00 | 60 | 1005.8 |
| 20260507125407 | 13 | 134 | 11.3 | 17.7 | 0.00 | 0.00 | 0.00 | 60 | 1005.6 |
| 20260507124507 | 13 | 133 | 9.7 | 12.9 | 0.00 | 0.00 | 0.00 | 60 | 1005.7 |
| 20260507123818 | 13 | 127 | 11.3 | 14.5 | 0.00 | 0.00 | 0.00 | 60 | 1005.7 |
| 20260507122707 | 13 | 161 | 9.7 | 14.5 | 0.00 | 0.00 | 0.00 | 59 | 1005.9 |
| 20260507121806 | 13 | 123 | 12.9 | 17.7 | 0.00 | 0.00 | 0.00 | 58 | 1006.0 |
| 20260507120910 | 13 | 129 | 11.3 | 17.7 | 0.00 | 0.00 | 0.00 | 62 | 1006.0 |
| 20260507120223 | 13 | 130 | 16.1 | 22.5 | 0.00 | 0.00 | 0.00 | 62 | 1006.0 |
| 20260507115406 | 12 | 136 | 14.5 | 20.9 | 0.00 | 0.00 | 0.00 | 61 | 1006.2 |
| 20260507114505 | 12 | 187 | 14.5 | 20.9 | 0.00 | 0.00 | 0.00 | 64 | 1005.9 |
| 20260507113605 | 12 | 139 | 16.1 | 22.5 | 0.00 | 0.00 | 0.00 | 64 | 1006.0 |
| 20260507112707 | 12 | 134 | 17.7 | 20.9 | 0.00 | 0.00 | 0.00 | 65 | 1006.2 |
| 20260507111808 | 12 | 141 | 17.7 | 20.9 | 0.00 | 0.00 | 0.00 | 66 | 1006.0 |
| 20260507110906 | 11 | 130 | 17.7 | 24.1 | 0.00 | 0.00 | 0.00 | 67 | 1006.1 |
| 20260507110006 | 11 | 138 | 16.1 | 22.5 | 0.00 | 0.00 | 0.00 | 68 | 1006.2 |
| 20260507105405 | 11 | 142 | 16.1 | 20.9 | 0.00 | 0.00 | 0.00 | 70 | 1006.0 |
| 20260507104508 | 11 | 139 | 11.3 | 17.7 | 0.00 | 0.00 | 0.00 | 72 | 1006.2 |
| 20260507103605 | 10 | 140 | 12.9 | 17.7 | 0.00 | 0.00 | 0.00 | 73 | 1006.4 |
| 20260507102705 | 10 | 128 | 12.9 | 17.7 | 0.00 | 0.00 | 0.00 | 74 | 1006.3 |
| 20260507101805 | 10 | 130 | 11.3 | 12.9 | 0.00 | 0.00 | 0.00 | 75 | 1006.8 |
| 20260507100906 | 9 | 125 | 9.7 | 14.5 | 0.00 | 0.00 | 0.00 | 76 | 1006.5 |
| 20260507100005 | 9 | 119 | 11.3 | 17.7 | 0.00 | 0.00 | 0.00 | 78 | 1006.5 |
| 20260507095620 | 9 | 118 | 11.3 | 17.7 | 0.00 | 0.00 | 0.00 | 78 | 1006.6 |
| 20260507094508 | 8 | 115 | 9.7 | 11.3 | 0.00 | 0.00 | 0.00 | 79 | 1006.8 |
| 20260507093815 | 8 | 113 | 9.7 | 11.3 | 0.00 | 0.00 | 0.00 | 80 | 1006.7 |
| 20260507092705 | 8 | 121 | 8.0 | 14.5 | 0.00 | 0.00 | 0.00 | 80 | 1006.8 |
| 20260507091808 | 8 | 129 | 11.3 | 14.5 | 0.00 | 0.00 | 0.00 | 81 | 1006.8 |
| 20260507090910 | 8 | 132 | 11.3 | 17.7 | 0.00 | 0.00 | 0.00 | 81 | 1006.8 |
| 20260507090007 | 8 | 126 | 12.9 | 17.7 | 0.00 | 0.00 | 0.00 | 81 | 1006.8 |
| 20260507085407 | 8 | 126 | 12.9 | 17.7 | 0.00 | 0.00 | 0.00 | 82 | 1006.7 |
| 20260507084509 | 7 | 128 | 12.9 | 17.7 | 0.00 | 0.00 | 0.00 | 82 | 1006.5 |
| 20260507083607 | 7 | 129 | 9.7 | 12.9 | 0.00 | 0.00 | 0.00 | 82 | 1006.8 |
| 20260507082708 | 7 | 123 | 11.3 | 17.7 | 0.00 | 0.00 | 0.00 | 83 | 1006.6 |
| 20260507081805 | 7 | 131 | 8.0 | 11.3 | 0.00 | 0.00 | 0.00 | 83 | 1006.8 |
| 20260507080909 | 7 | 129 | 8.0 | 11.3 | 0.00 | 0.00 | 0.00 | 84 | 1006.8 |
| 20260507080009 | 7 | 117 | 9.7 | 12.9 | 0.00 | 0.00 | 0.00 | 84 | 1006.9 |
| 20260507075616 | 7 | 116 | 11.3 | 14.5 | 0.00 | 0.00 | 0.00 | 84 | 1006.4 |
| 20260507074507 | 7 | 118 | 9.7 | 14.5 | 0.00 | 0.00 | 0.00 | 84 | 1006.5 |
| 20260507073607 | 7 | 110 | 9.7 | 12.9 | 0.00 | 0.00 | 0.00 | 84 | 1006.4 |
| 20260507072918 | 7 | 121 | 8.0 | 11.3 | 0.00 | 0.00 | 0.00 | 84 | 1006.4 |
| 20260507071810 | 7 | 115 | 11.3 | 12.9 | 0.00 | 0.00 | 0.00 | 84 | 1006.3 |
| 20260507070907 | 7 | 117 | 9.7 | 12.9 | 0.00 | 0.00 | 0.00 | 84 | 1006.3 |
| 20260507070011 | 7 | 125 | 9.7 | 12.9 | 0.00 | 0.00 | 0.00 | 84 | 1006.2 |
| 20260507065405 | 7 | 118 | 9.7 | 12.9 | 0.00 | 0.00 | 0.00 | 84 | 1006.4 |
| 20260507064507 | 7 | 121 | 11.3 | 14.5 | 0.00 | 0.00 | 0.00 | 84 | 1006.2 |
| 20260507063605 | 7 | 135 | 11.3 | 12.9 | 0.00 | 0.00 | 0.00 | 84 | 1006.2 |
| 20260507062919 | 7 | 133 | 11.3 | 14.5 | 0.00 | 0.00 | 0.00 | 84 | 1006.2 |
| 20260507061809 | 7 | 128 | 8.0 | 11.3 | 0.00 | 0.00 | 0.00 | 84 | 1006.2 |
| 20260507060908 | 7 | 129 | 11.3 | 12.9 | 0.00 | 0.00 | 0.00 | 84 | 1006.2 |
| 20260507060006 | 6 | 137 | 8.0 | 12.9 | 0.00 | 0.00 | 0.00 | 84 | 1006.2 |
| 20260507055405 | 6 | 143 | 6.4 | 9.7 | 0.00 | 0.00 | 0.00 | 84 | 1006.1 |
| 20260507054508 | 6 | 123 | 9.7 | 12.9 | 0.00 | 0.00 | 0.00 | 84 | 1006.1 |
| 20260507053610 | 6 | 131 | 9.7 | 12.9 | 0.00 | 0.00 | 0.00 | 84 | 1006.2 |
| 20260507052706 | 6 | 135 | 8.0 | 11.3 | 0.00 | 0.00 | 0.00 | 84 | 1006.0 |
| 20260507051808 | 6 | 116 | 8.0 | 12.9 | 0.00 | 0.00 | 0.00 | 84 | 1006.0 |
| 20260507050906 | 6 | 115 | 9.7 | 14.5 | 0.00 | 0.00 | 0.00 | 84 | 1006.1 |
| 20260507050007 | 6 | 127 | 8.0 | 11.3 | 0.00 | 0.00 | 0.00 | 84 | 1006.0 |
| 20260507045405 | 6 | 116 | 8.0 | 11.3 | 0.00 | 0.00 | 0.00 | 84 | 1005.9 |
| 20260507044505 | 6 | 120 | 8.0 | 11.3 | 0.00 | 0.00 | 0.00 | 84 | 1005.9 |
| 20260507043607 | 6 | 114 | 6.4 | 11.3 | 0.00 | 0.00 | 0.00 | 84 | 1006.0 |
| 20260507042706 | 6 | 113 | 6.4 | 9.7 | 0.00 | 0.00 | 0.00 | 84 | 1006.1 |
| 20260507042018 | 6 | 118 | 6.4 | 9.7 | 0.00 | 0.00 | 0.00 | 83 | 1005.9 |
| 20260507040907 | 6 | 134 | 6.4 | 9.7 | 0.00 | 0.00 | 0.00 | 83 | 1006.0 |
| 20260507040006 | 6 | 130 | 8.0 | 11.3 | 0.00 | 0.00 | 0.00 | 83 | 1006.0 |
| 20260507035407 | 6 | 137 | 8.0 | 11.3 | 0.00 | 0.00 | 0.00 | 83 | 1006.0 |
| 20260507034505 | 6 | 134 | 8.0 | 11.3 | 0.00 | 0.00 | 0.00 | 83 | 1006.1 |
| 20260507033819 | 6 | 122 | 9.7 | 12.9 | 0.00 | 0.00 | 0.00 | 82 | 1006.0 |
| 20260507032705 | 6 | 139 | 9.7 | 14.5 | 0.00 | 0.00 | 0.00 | 82 | 1006.1 |
| 20260507031809 | 6 | 131 | 9.7 | 14.5 | 0.00 | 0.00 | 0.00 | 82 | 1006.0 |
| 20260507030905 | 6 | 131 | 11.3 | 12.9 | 0.00 | 0.00 | 0.00 | 82 | 1006.1 |
| 20260507030008 | 6 | 132 | 11.3 | 14.5 | 0.00 | 0.00 | 0.00 | 82 | 1006.1 |
| 20260507025408 | 6 | 132 | 9.7 | 14.5 | 0.00 | 0.00 | 0.00 | 82 | 1006.2 |
| 20260507024509 | 6 | 144 | 12.9 | 17.7 | 0.00 | 0.00 | 0.00 | 81 | 1006.1 |
| 20260507023605 | 6 | 138 | 12.9 | 17.7 | 0.00 | 0.00 | 0.00 | 81 | 1006.2 |
| 20260507022706 | 6 | 140 | 14.5 | 20.9 | 0.00 | 0.00 | 0.00 | 81 | 1006.2 |
| 20260507022019 | 6 | 135 | 16.1 | 20.9 | 0.00 | 0.00 | 0.00 | 81 | 1006.3 |
| 20260507020910 | 6 | 146 | 14.5 | 22.5 | 0.00 | 0.00 | 0.00 | 81 | 1006.0 |
| 20260507020007 | 7 | 132 | 12.9 | 17.7 | 0.00 | 0.00 | 0.00 | 80 | 1006.1 |
| 20260507015407 | 7 | 130 | 9.7 | 17.7 | 0.00 | 0.00 | 0.00 | 81 | 1006.2 |
| 20260507014507 | 7 | 111 | 11.3 | 17.7 | 0.00 | 0.00 | 0.00 | 81 | 1006.2 |
| 20260507013606 | 7 | 119 | 12.9 | 17.7 | 0.00 | 0.00 | 0.00 | 80 | 1006.1 |
| 20260507012705 | 7 | 130 | 11.3 | 14.5 | 0.00 | 0.00 | 0.00 | 80 | 1006.3 |
| 20260507011806 | 7 | 125 | 11.3 | 17.7 | 0.00 | 0.00 | 0.00 | 80 | 1006.3 |
| 20260507010906 | 7 | 114 | 12.9 | 17.7 | 0.00 | 0.00 | 0.00 | 79 | 1006.5 |
| 20260507010006 | 7 | 116 | 11.3 | 14.5 | 0.00 | 0.00 | 0.00 | 79 | 1006.4 |
| 20260507005406 | 7 | 134 | 9.7 | 12.9 | 0.00 | 0.00 | 0.00 | 79 | 1006.5 |
| 20260507004718 | 7 | 131 | 11.3 | 17.7 | 0.00 | 0.00 | 0.00 | 79 | 1006.6 |
| 20260507003607 | 7 | 120 | 12.9 | 17.7 | 0.00 | 0.00 | 0.00 | 79 | 1006.4 |
| 20260507002709 | 7 | 133 | 11.3 | 14.5 | 0.00 | 0.00 | 0.00 | 79 | 1006.5 |
| 20260507001807 | 7 | 126 | 9.7 | 14.5 | 0.00 | 0.00 | 0.00 | 79 | 1006.5 |
| 20260507000905 | 7 | 99 | 12.9 | 14.5 | 0.00 | 0.00 | 0.00 | 78 | 1006.7 |
| 20260507000006 | 7 | 127 | 11.3 | 14.5 | 0.00 | 0.00 | 0.00 | 78 | 1006.8 |
| 20260506235405 | 7 | 134 | 11.3 | 14.5 | 0.00 | 0.00 | 0.00 | 78 | 1006.5 |
| 20260506234507 | 7 | 117 | 11.3 | 12.9 | 0.00 | 0.00 | 0.00 | 78 | 1006.6 |
| 20260506233607 | 7 | 125 | 8.0 | 12.9 | 0.00 | 0.00 | 0.00 | 78 | 1006.6 |
| 20260506232708 | 7 | 128 | 9.7 | 17.7 | 0.00 | 0.00 | 0.00 | 78 | 1006.5 |
| 20260506231805 | 7 | 122 | 8.0 | 11.3 | 0.00 | 0.00 | 0.00 | 77 | 1006.7 |
| 20260506230907 | 7 | 122 | 8.0 | 12.9 | 0.00 | 0.00 | 0.00 | 76 | 1006.5 |
| 20260506230011 | 8 | 131 | 8.0 | 11.3 | 0.00 | 0.00 | 0.00 | 75 | 1006.5 |
| 20260506225407 | 8 | 135 | 9.7 | 12.9 | 0.00 | 0.00 | 0.00 | 75 | 1006.5 |
| 20260506224509 | 8 | 139 | 9.7 | 14.5 | 0.00 | 0.00 | 0.00 | 74 | 1006.4 |
| 20260506223605 | 8 | 133 | 11.3 | 17.7 | 0.00 | 0.00 | 0.00 | 74 | 1006.5 |
| 20260506222707 | 8 | 147 | 12.9 | 17.7 | 0.00 | 0.00 | 0.00 | 73 | 1006.3 |
| 20260506221807 | 8 | 138 | 9.7 | 14.5 | 0.00 | 0.00 | 0.00 | 74 | 1006.2 |
| 20260506220907 | 8 | 138 | 8.0 | 11.3 | 0.00 | 0.00 | 0.00 | 73 | 1006.4 |
| 20260506220007 | 8 | 143 | 6.4 | 11.3 | 0.00 | 0.00 | 0.00 | 73 | 1006.2 |
| 20260506215618 | 8 | 146 | 6.4 | 9.7 | 0.00 | 0.00 | 0.00 | 73 | 1006.2 |
| 20260506214720 | 9 | 135 | 8.0 | 11.3 | 0.00 | 0.00 | 0.00 | 73 | 1006.3 |
| 20260506213818 | 9 | 139 | 9.7 | 12.9 | 0.00 | 0.00 | 0.00 | 72 | 1006.3 |